Wednesday, November 22, 2017, 7:57 AM EST
Back to Local

KFIG, Clearfield-lawrence Airport

Location: Clearfield, PA, United States Lat: 41.05
Local Time: 7:57 AM EST (12:57 GMT) Lon: -78.417
Time Zone: US/Eastern Elev: 1515 ft

Show me the last for .
Show Decoded

2017-11-22 07:42 METAR KFIG 221242Z AUTO 30007G14KT 10SM BKN016 OVC022 03/00 A3003 RMK AO2
                 T00280000 =
2017-11-22 07:33 METAR KFIG 221233Z AUTO 30005KT 10SM BKN014 OVC020 03/01 A3002 RMK AO2 T00280006
                 =
2017-11-22 07:22 METAR KFIG 221222Z AUTO 30006KT 10SM OVC015 03/01 A3002 RMK AO2 T00280006 =
2017-11-22 07:09 METAR KFIG 221209Z AUTO 29006KT 10SM BKN013 OVC018 03/01 A3001 RMK AO2 T00280006
                 =
2017-11-22 06:54 METAR KFIG 221154Z AUTO 29005KT 10SM BKN016 OVC045 03/01 A2999 RMK AO2 RAE09
                 SLP164 P0000 60000 T00280006 10067 20022 53010 =
2017-11-22 06:51 METAR KFIG 221151Z AUTO 29007KT 10SM BKN016 OVC045 03/01 A2999 RMK AO2 RAE09
                 P0000 =
2017-11-22 05:54 METAR KFIG 221054Z AUTO 33010KT 10SM -RA FEW018 BKN042 OVC050 03/02 A2996 RMK
                 AO2 RAB17 SLP152 P0000 T00280017 =
2017-11-22 05:49 METAR KFIG 221049Z AUTO 33009G17KT 10SM -RA SCT018 BKN042 OVC050 03/02 A2996 RMK
                 AO2 RAB17 P0000 =
2017-11-22 05:29 METAR KFIG 221029Z AUTO 34014G21KT 10SM -RA BKN018 OVC038 04/02 A2995 RMK AO2
                 RAB17 P0000 T00390017 =
2017-11-22 04:54 METAR KFIG 220954Z AUTO 28008G15KT 10SM OVC043 06/01 A2992 RMK AO2 SLP138
                 T00610011 =
2017-11-22 03:54 METAR KFIG 220854Z AUTO 00000KT 10SM OVC050 03/00 A2990 RMK AO2 SLP131 T00280000
                 50000 =
2017-11-22 02:54 METAR KFIG 220754Z AUTO 00000KT 10SM OVC080 04/M01 A2991 RMK AO2 SLP133
                 T00391006 =
2017-11-22 01:54 METAR KFIG 220654Z AUTO 19003KT 10SM BKN060 OVC080 04/M01 A2989 RMK AO2 SLP127
                 T00391011 =
2017-11-22 00:54 METAR KFIG 220554Z AUTO 00000KT 10SM FEW085 03/M01 A2990 RMK AO2 SLP131
                 T00331011 10089 20028 58007 =
2017-11-21 23:54 METAR KFIG 220454Z AUTO 00000KT 10SM OVC070 03/M01 A2991 RMK AO2 SLP137
                 T00281011 401281050 =
2017-11-21 22:54 METAR KFIG 220354Z AUTO 00000KT 10SM FEW065 03/M02 A2992 RMK AO2 SLP138
                 T00281017 =
2017-11-21 21:54 METAR KFIG 220254Z AUTO 00000KT 10SM CLR 04/M03 A2992 RMK AO2 SLP143 T00391028
                 58001 =
2017-11-21 20:54 METAR KFIG 220154Z AUTO 00000KT 10SM CLR 05/M03 A2992 RMK AO2 SLP146 T00501028 =
2017-11-21 19:54 METAR KFIG 220054Z AUTO 00000KT 10SM CLR 07/M04 A2993 RMK AO2 SLP148 T00671039 =
2017-11-21 18:54 METAR KFIG 212354Z AUTO 21005KT 10SM CLR 09/M03 A2993 RMK AO2 SLP146 T00891033
                 10128 20089 53010 =
2017-11-21 17:54 METAR KFIG 212254Z AUTO 21007KT 10SM CLR 11/M04 A2991 RMK AO2 SLP139 T01061044 =
2017-11-21 16:54 METAR KFIG 212154Z AUTO 21008KT 10SM CLR 11/M03 A2990 RMK AO2 SLP134 T01061033 =
2017-11-21 15:54 METAR KFIG 212054Z AUTO 22010G17KT 10SM CLR 12/M04 A2989 RMK AO2 SLP132
                 T01221039 55003 =
2017-11-21 14:54 METAR KFIG 211954Z AUTO 22012G21KT 10SM CLR 12/M04 A2988 RMK AO2 PK WND
                 24026/1904 SLP128 T01221044 =
2017-11-21 13:54 METAR KFIG 211854Z AUTO 22011G23KT 190V260 10SM CLR 12/M04 A2989 RMK AO2 SLP129
                 T01221044 =
2017-11-21 12:54 METAR KFIG 211754Z AUTO 22014G21KT 10SM CLR 11/M04 A2990 RMK AO2 SLP135 I6000
                 T01061039 10117 21050 55022 =
2017-11-21 11:54 METAR KFIG 211654Z AUTO 21014G29KT 10SM CLR 11/M04 A2990 RMK AO2 PK WND
                 22029/1652 SLP135 T01061039 =
2017-11-21 10:54 METAR KFIG 211554Z AUTO 21011KT 10SM CLR 08/M03 A2995 RMK AO2 SLP152 T00831028 =
2017-11-21 09:54 METAR KFIG 211454Z AUTO VRB03KT 10SM CLR 04/M03 A2997 RMK AO2 SLP162 I3000
                 T00391028 58003 =
2017-11-21 08:54 METAR KFIG 211354Z AUTO 00000KT 10SM CLR M01/M03 A2998 RMK AO2 SLP169 T10061028
                 =

Support USWX by starting your Amazon purchase here.